sensor_id;sensor_type;location;lat;lon;timestamp;pressure;altitude;pressure_sealevel;temperature;humidity
60642;BME280;46837;52.446;-1.930;2023-04-05T00:00:11;100876.55;;;9.75;58.07
60642;BME280;46837;52.446;-1.930;2023-04-05T00:01:09;100875.35;;;9.72;58.09
60642;BME280;46837;52.446;-1.930;2023-04-05T00:02:09;100871.59;;;9.72;57.97
60642;BME280;46837;52.446;-1.930;2023-04-05T00:03:09;100870.93;;;9.69;58.00
60642;BME280;46837;52.446;-1.930;2023-04-05T00:04:09;100875.22;;;9.71;58.12
60642;BME280;46837;52.446;-1.930;2023-04-05T00:05:09;100869.54;;;9.70;58.12
60642;BME280;46837;52.446;-1.930;2023-04-05T00:06:09;100865.33;;;9.70;58.16
60642;BME280;46837;52.446;-1.930;2023-04-05T00:07:10;100869.68;;;9.68;58.27
60642;BME280;46837;52.446;-1.930;2023-04-05T00:08:13;100871.74;;;9.69;58.27
60642;BME280;46837;52.446;-1.930;2023-04-05T00:09:09;100871.68;;;9.71;58.37
60642;BME280;46837;52.446;-1.930;2023-04-05T00:10:09;100869.93;;;9.71;58.48
60642;BME280;46837;52.446;-1.930;2023-04-05T00:11:09;100869.29;;;9.69;58.48
60642;BME280;46837;52.446;-1.930;2023-04-05T00:12:09;100872.43;;;9.67;58.49
60642;BME280;46837;52.446;-1.930;2023-04-05T00:13:09;100872.33;;;9.67;58.66
60642;BME280;46837;52.446;-1.930;2023-04-05T00:14:09;100869.95;;;9.66;58.83
60642;BME280;46837;52.446;-1.930;2023-04-05T00:15:09;100870.62;;;9.67;58.83
60642;BME280;46837;52.446;-1.930;2023-04-05T00:16:09;100869.80;;;9.67;58.79
60642;BME280;46837;52.446;-1.930;2023-04-05T00:17:09;100865.40;;;9.65;58.93
60642;BME280;46837;52.446;-1.930;2023-04-05T00:18:09;100866.45;;;9.66;59.03
60642;BME280;46837;52.446;-1.930;2023-04-05T00:19:09;100868.13;;;9.64;59.12
60642;BME280;46837;52.446;-1.930;2023-04-05T00:20:09;100861.42;;;9.59;59.32
60642;BME280;46837;52.446;-1.930;2023-04-05T00:21:09;100861.23;;;9.57;59.52
60642;BME280;46837;52.446;-1.930;2023-04-05T00:22:09;100858.05;;;9.57;59.57
60642;BME280;46837;52.446;-1.930;2023-04-05T00:23:09;100855.11;;;9.57;59.66
60642;BME280;46837;52.446;-1.930;2023-04-05T00:24:09;100856.88;;;9.52;59.82
60642;BME280;46837;52.446;-1.930;2023-04-05T00:25:09;100855.09;;;9.50;59.99
60642;BME280;46837;52.446;-1.930;2023-04-05T00:26:09;100853.89;;;9.50;59.89
60642;BME280;46837;52.446;-1.930;2023-04-05T00:27:09;100852.11;;;9.48;60.24
60642;BME280;46837;52.446;-1.930;2023-04-05T00:28:09;100849.35;;;9.41;60.44
60642;BME280;46837;52.446;-1.930;2023-04-05T00:29:09;100849.74;;;9.41;60.43
60642;BME280;46837;52.446;-1.930;2023-04-05T00:30:09;100848.71;;;9.41;60.62
60642;BME280;46837;52.446;-1.930;2023-04-05T00:31:09;100850.16;;;9.34;60.71
60642;BME280;46837;52.446;-1.930;2023-04-05T00:32:09;100849.45;;;9.36;60.84
60642;BME280;46837;52.446;-1.930;2023-04-05T00:33:10;100851.52;;;9.34;60.94
60642;BME280;46837;52.446;-1.930;2023-04-05T00:34:10;100848.17;;;9.35;61.00
60642;BME280;46837;52.446;-1.930;2023-04-05T00:35:09;100849.62;;;9.33;61.23
60642;BME280;46837;52.446;-1.930;2023-04-05T00:36:15;100847.98;;;9.37;61.16
60642;BME280;46837;52.446;-1.930;2023-04-05T00:37:09;100847.70;;;9.37;61.15
60642;BME280;46837;52.446;-1.930;2023-04-05T00:38:09;100848.77;;;9.38;61.08
60642;BME280;46837;52.446;-1.930;2023-04-05T00:39:09;100852.69;;;9.40;61.17
60642;BME280;46837;52.446;-1.930;2023-04-05T00:40:09;100853.55;;;9.41;61.23
60642;BME280;46837;52.446;-1.930;2023-04-05T00:41:09;100852.75;;;9.42;61.33
60642;BME280;46837;52.446;-1.930;2023-04-05T00:42:09;100853.28;;;9.41;61.36
60642;BME280;46837;52.446;-1.930;2023-04-05T00:43:09;100852.59;;;9.42;61.37
60642;BME280;46837;52.446;-1.930;2023-04-05T00:44:09;100850.85;;;9.44;61.45
60642;BME280;46837;52.446;-1.930;2023-04-05T00:45:09;100850.26;;;9.39;61.59
60642;BME280;46837;52.446;-1.930;2023-04-05T00:46:09;100850.50;;;9.38;61.67
60642;BME280;46837;52.446;-1.930;2023-04-05T00:47:10;100853.33;;;9.38;61.90
60642;BME280;46837;52.446;-1.930;2023-04-05T00:48:09;100850.55;;;9.35;61.98
60642;BME280;46837;52.446;-1.930;2023-04-05T00:49:09;100850.27;;;9.33;62.19
60642;BME280;46837;52.446;-1.930;2023-04-05T00:50:09;100850.52;;;9.36;62.08
60642;BME280;46837;52.446;-1.930;2023-04-05T00:51:11;100851.36;;;9.37;62.08
60642;BME280;46837;52.446;-1.930;2023-04-05T00:52:09;100847.56;;;9.35;62.18
60642;BME280;46837;52.446;-1.930;2023-04-05T00:53:09;100848.53;;;9.31;62.31
60642;BME280;46837;52.446;-1.930;2023-04-05T00:54:09;100843.97;;;9.29;62.40
60642;BME280;46837;52.446;-1.930;2023-04-05T00:55:09;100847.75;;;9.28;62.58
60642;BME280;46837;52.446;-1.930;2023-04-05T00:56:09;100845.06;;;9.27;62.61
60642;BME280;46837;52.446;-1.930;2023-04-05T00:57:09;100846.52;;;9.29;62.60
60642;BME280;46837;52.446;-1.930;2023-04-05T00:58:09;100838.68;;;9.27;62.71
60642;BME280;46837;52.446;-1.930;2023-04-05T00:59:09;100843.22;;;9.22;62.96
60642;BME280;46837;52.446;-1.930;2023-04-05T01:00:11;100838.55;;;9.20;63.05
60642;BME280;46837;52.446;-1.930;2023-04-05T01:01:16;100839.75;;;9.19;63.14
60642;BME280;46837;52.446;-1.930;2023-04-05T01:03:09;100838.39;;;9.19;63.09
60642;BME280;46837;52.446;-1.930;2023-04-05T01:04:09;100833.69;;;9.19;63.18
60642;BME280;46837;52.446;-1.930;2023-04-05T01:05:20;100833.87;;;9.23;63.13
60642;BME280;46837;52.446;-1.930;2023-04-05T01:06:15;100838.39;;;9.20;63.25
60642;BME280;46837;52.446;-1.930;2023-04-05T01:10:10;100831.04;;;9.18;63.54
60642;BME280;46837;52.446;-1.930;2023-04-05T01:11:09;100832.13;;;9.13;63.67
60642;BME280;46837;52.446;-1.930;2023-04-05T01:12:09;100834.00;;;9.13;63.85
60642;BME280;46837;52.446;-1.930;2023-04-05T01:13:09;100828.53;;;9.13;63.78
60642;BME280;46837;52.446;-1.930;2023-04-05T01:14:09;100829.16;;;9.11;63.88
60642;BME280;46837;52.446;-1.930;2023-04-05T01:15:10;100831.54;;;9.12;64.05
60642;BME280;46837;52.446;-1.930;2023-04-05T01:16:09;100824.62;;;9.16;63.84
60642;BME280;46837;52.446;-1.930;2023-04-05T01:17:11;100822.28;;;9.16;63.73
60642;BME280;46837;52.446;-1.930;2023-04-05T01:18:09;100820.66;;;9.20;63.68
60642;BME280;46837;52.446;-1.930;2023-04-05T01:19:09;100820.72;;;9.20;63.70
60642;BME280;46837;52.446;-1.930;2023-04-05T01:20:12;100818.09;;;9.16;63.90
60642;BME280;46837;52.446;-1.930;2023-04-05T01:22:25;100814.60;;;9.14;63.96
60642;BME280;46837;52.446;-1.930;2023-04-05T01:24:19;100816.19;;;9.11;64.08
60642;BME280;46837;52.446;-1.930;2023-04-05T01:25:21;100816.12;;;9.11;64.33
60642;BME280;46837;52.446;-1.930;2023-04-05T01:27:15;100809.46;;;9.10;64.26
60642;BME280;46837;52.446;-1.930;2023-04-05T01:30:19;100813.10;;;9.06;64.49
60642;BME280;46837;52.446;-1.930;2023-04-05T01:31:14;100818.21;;;9.03;64.70
60642;BME280;46837;52.446;-1.930;2023-04-05T01:33:13;100817.31;;;8.98;64.94
60642;BME280;46837;52.446;-1.930;2023-04-05T01:35:00;100815.91;;;8.97;64.99
60642;BME280;46837;52.446;-1.930;2023-04-05T01:35:21;100815.16;;;9.00;64.96
60642;BME280;46837;52.446;-1.930;2023-04-05T01:37:11;100812.72;;;8.96;65.21
60642;BME280;46837;52.446;-1.930;2023-04-05T01:38:11;100814.07;;;8.95;65.14
60642;BME280;46837;52.446;-1.930;2023-04-05T01:39:10;100810.63;;;8.89;65.43
60642;BME280;46837;52.446;-1.930;2023-04-05T01:40:09;100811.96;;;8.88;65.51
60642;BME280;46837;52.446;-1.930;2023-04-05T01:41:09;100812.88;;;8.87;65.69
60642;BME280;46837;52.446;-1.930;2023-04-05T01:42:09;100812.86;;;8.83;65.81
60642;BME280;46837;52.446;-1.930;2023-04-05T01:43:14;100808.82;;;8.80;65.98
60642;BME280;46837;52.446;-1.930;2023-04-05T01:44:09;100813.09;;;8.81;66.01
60642;BME280;46837;52.446;-1.930;2023-04-05T01:45:09;100811.25;;;8.76;66.17
60642;BME280;46837;52.446;-1.930;2023-04-05T01:46:09;100810.86;;;8.73;66.31
60642;BME280;46837;52.446;-1.930;2023-04-05T01:47:09;100809.39;;;8.71;66.44
60642;BME280;46837;52.446;-1.930;2023-04-05T01:48:09;100808.81;;;8.72;66.39
60642;BME280;46837;52.446;-1.930;2023-04-05T01:49:09;100805.93;;;8.72;66.42
60642;BME280;46837;52.446;-1.930;2023-04-05T01:50:09;100803.86;;;8.67;66.57
60642;BME280;46837;52.446;-1.930;2023-04-05T01:51:09;100802.13;;;8.68;66.57
60642;BME280;46837;52.446;-1.930;2023-04-05T01:52:09;100803.28;;;8.68;66.68
60642;BME280;46837;52.446;-1.930;2023-04-05T01:53:09;100799.96;;;8.60;66.87
60642;BME280;46837;52.446;-1.930;2023-04-05T01:54:09;100799.45;;;8.56;67.08
60642;BME280;46837;52.446;-1.930;2023-04-05T01:55:09;100802.40;;;8.50;67.34
60642;BME280;46837;52.446;-1.930;2023-04-05T01:56:09;100801.76;;;8.45;67.65
60642;BME280;46837;52.446;-1.930;2023-04-05T01:57:09;100798.77;;;8.34;68.08
60642;BME280;46837;52.446;-1.930;2023-04-05T01:58:09;100796.22;;;8.30;68.26
60642;BME280;46837;52.446;-1.930;2023-04-05T01:59:09;100793.84;;;8.30;68.35
60642;BME280;46837;52.446;-1.930;2023-04-05T02:00:09;100796.69;;;8.32;68.30
60642;BME280;46837;52.446;-1.930;2023-04-05T02:01:09;100794.56;;;8.34;68.17
60642;BME280;46837;52.446;-1.930;2023-04-05T02:02:09;100793.46;;;8.31;68.28
60642;BME280;46837;52.446;-1.930;2023-04-05T02:03:09;100792.19;;;8.32;68.22
60642;BME280;46837;52.446;-1.930;2023-04-05T02:04:09;100794.80;;;8.32;68.25
60642;BME280;46837;52.446;-1.930;2023-04-05T02:05:09;100793.14;;;8.28;68.38
60642;BME280;46837;52.446;-1.930;2023-04-05T02:06:09;100792.55;;;8.24;68.54
60642;BME280;46837;52.446;-1.930;2023-04-05T02:07:09;100794.70;;;8.23;68.70
60642;BME280;46837;52.446;-1.930;2023-04-05T02:08:09;100788.89;;;8.19;68.82
60642;BME280;46837;52.446;-1.930;2023-04-05T02:09:09;100790.66;;;8.18;68.91
60642;BME280;46837;52.446;-1.930;2023-04-05T02:10:09;100791.71;;;8.18;68.91
60642;BME280;46837;52.446;-1.930;2023-04-05T02:11:09;100789.21;;;8.18;68.95
60642;BME280;46837;52.446;-1.930;2023-04-05T02:12:09;100789.52;;;8.18;68.85
60642;BME280;46837;52.446;-1.930;2023-04-05T02:13:09;100789.91;;;8.18;68.80
60642;BME280;46837;52.446;-1.930;2023-04-05T02:14:09;100791.30;;;8.17;68.94
60642;BME280;46837;52.446;-1.930;2023-04-05T02:15:09;100788.93;;;8.20;68.81
60642;BME280;46837;52.446;-1.930;2023-04-05T02:16:09;100791.07;;;8.16;69.00
60642;BME280;46837;52.446;-1.930;2023-04-05T02:17:09;100788.67;;;8.16;69.07
60642;BME280;46837;52.446;-1.930;2023-04-05T02:18:09;100790.22;;;8.19;68.94
60642;BME280;46837;52.446;-1.930;2023-04-05T02:19:09;100782.88;;;8.17;69.00
60642;BME280;46837;52.446;-1.930;2023-04-05T02:20:09;100785.34;;;8.17;68.95
60642;BME280;46837;52.446;-1.930;2023-04-05T02:21:09;100782.77;;;8.17;69.02
60642;BME280;46837;52.446;-1.930;2023-04-05T02:22:09;100787.34;;;8.15;69.03
60642;BME280;46837;52.446;-1.930;2023-04-05T02:23:09;100781.30;;;8.12;69.25
60642;BME280;46837;52.446;-1.930;2023-04-05T02:24:09;100781.70;;;8.18;69.06
60642;BME280;46837;52.446;-1.930;2023-04-05T02:25:09;100781.80;;;8.18;69.01
60642;BME280;46837;52.446;-1.930;2023-04-05T02:26:09;100780.78;;;8.13;69.19
60642;BME280;46837;52.446;-1.930;2023-04-05T02:27:09;100778.69;;;8.18;69.10
60642;BME280;46837;52.446;-1.930;2023-04-05T02:28:09;100773.81;;;8.16;69.16
60642;BME280;46837;52.446;-1.930;2023-04-05T02:29:09;100774.42;;;8.16;69.26
60642;BME280;46837;52.446;-1.930;2023-04-05T02:30:09;100774.14;;;8.19;69.16
60642;BME280;46837;52.446;-1.930;2023-04-05T02:31:09;100773.38;;;8.21;69.07
60642;BME280;46837;52.446;-1.930;2023-04-05T02:32:09;100770.55;;;8.22;69.09
60642;BME280;46837;52.446;-1.930;2023-04-05T02:33:09;100772.49;;;8.25;68.99
60642;BME280;46837;52.446;-1.930;2023-04-05T02:34:11;100772.98;;;8.28;68.94
60642;BME280;46837;52.446;-1.930;2023-04-05T02:35:09;100769.85;;;8.27;69.03
60642;BME280;46837;52.446;-1.930;2023-04-05T02:36:10;100771.02;;;8.23;69.25
60642;BME280;46837;52.446;-1.930;2023-04-05T02:37:09;100768.15;;;8.21;69.32
60642;BME280;46837;52.446;-1.930;2023-04-05T02:38:09;100766.32;;;8.20;69.54
60642;BME280;46837;52.446;-1.930;2023-04-05T02:39:09;100766.11;;;8.17;69.70
60642;BME280;46837;52.446;-1.930;2023-04-05T02:40:11;100763.54;;;8.20;69.58
60642;BME280;46837;52.446;-1.930;2023-04-05T02:41:09;100762.85;;;8.18;69.73
60642;BME280;46837;52.446;-1.930;2023-04-05T02:42:09;100754.86;;;8.16;69.79
60642;BME280;46837;52.446;-1.930;2023-04-05T02:43:09;100757.79;;;8.15;69.91
60642;BME280;46837;52.446;-1.930;2023-04-05T02:44:09;100753.49;;;8.16;69.96
60642;BME280;46837;52.446;-1.930;2023-04-05T02:45:09;100752.77;;;8.17;69.86
60642;BME280;46837;52.446;-1.930;2023-04-05T02:46:09;100752.51;;;8.16;69.98
60642;BME280;46837;52.446;-1.930;2023-04-05T02:47:09;100751.30;;;8.18;70.01
60642;BME280;46837;52.446;-1.930;2023-04-05T02:48:09;100744.66;;;8.17;69.97
60642;BME280;46837;52.446;-1.930;2023-04-05T02:49:09;100749.27;;;8.12;70.19
60642;BME280;46837;52.446;-1.930;2023-04-05T02:50:09;100750.11;;;8.15;70.11
60642;BME280;46837;52.446;-1.930;2023-04-05T02:51:09;100750.80;;;8.09;70.27
60642;BME280;46837;52.446;-1.930;2023-04-05T02:52:09;100753.04;;;8.10;70.36
60642;BME280;46837;52.446;-1.930;2023-04-05T02:53:09;100747.39;;;8.10;70.34
60642;BME280;46837;52.446;-1.930;2023-04-05T02:54:09;100748.00;;;8.13;70.20
60642;BME280;46837;52.446;-1.930;2023-04-05T02:55:09;100749.88;;;8.15;70.04
60642;BME280;46837;52.446;-1.930;2023-04-05T02:56:09;100749.87;;;8.09;70.28
60642;BME280;46837;52.446;-1.930;2023-04-05T02:57:09;100747.94;;;8.11;70.29
60642;BME280;46837;52.446;-1.930;2023-04-05T02:58:09;100748.52;;;8.09;70.35
60642;BME280;46837;52.446;-1.930;2023-04-05T02:59:09;100746.61;;;8.09;70.46
60642;BME280;46837;52.446;-1.930;2023-04-05T03:00:10;100747.19;;;8.09;70.36
60642;BME280;46837;52.446;-1.930;2023-04-05T03:01:09;100747.44;;;8.07;70.54
60642;BME280;46837;52.446;-1.930;2023-04-05T03:02:09;100750.05;;;8.10;70.51
60642;BME280;46837;52.446;-1.930;2023-04-05T03:03:09;100745.66;;;8.11;70.35
60642;BME280;46837;52.446;-1.930;2023-04-05T03:04:09;100745.74;;;8.12;70.30
60642;BME280;46837;52.446;-1.930;2023-04-05T03:05:09;100741.31;;;8.04;70.54
60642;BME280;46837;52.446;-1.930;2023-04-05T03:06:11;100740.54;;;8.04;70.68
60642;BME280;46837;52.446;-1.930;2023-04-05T03:07:09;100744.83;;;8.08;70.51
60642;BME280;46837;52.446;-1.930;2023-04-05T03:08:09;100739.75;;;8.07;70.44
60642;BME280;46837;52.446;-1.930;2023-04-05T03:09:09;100740.79;;;8.02;70.68
60642;BME280;46837;52.446;-1.930;2023-04-05T03:10:09;100739.59;;;8.00;70.83
60642;BME280;46837;52.446;-1.930;2023-04-05T03:11:09;100737.02;;;7.97;70.90
60642;BME280;46837;52.446;-1.930;2023-04-05T03:12:09;100740.18;;;7.99;70.79
60642;BME280;46837;52.446;-1.930;2023-04-05T03:13:09;100736.39;;;7.88;71.24
60642;BME280;46837;52.446;-1.930;2023-04-05T03:14:09;100737.79;;;7.89;71.21
60642;BME280;46837;52.446;-1.930;2023-04-05T03:15:09;100734.28;;;7.82;71.42
60642;BME280;46837;52.446;-1.930;2023-04-05T03:16:09;100740.67;;;7.82;71.47
60642;BME280;46837;52.446;-1.930;2023-04-05T03:17:09;100736.60;;;7.83;71.64
60642;BME280;46837;52.446;-1.930;2023-04-05T03:18:09;100739.99;;;7.82;71.59
60642;BME280;46837;52.446;-1.930;2023-04-05T03:19:09;100740.46;;;7.83;71.70
60642;BME280;46837;52.446;-1.930;2023-04-05T03:20:09;100739.62;;;7.80;71.60
60642;BME280;46837;52.446;-1.930;2023-04-05T03:21:09;100738.69;;;7.82;71.65
60642;BME280;46837;52.446;-1.930;2023-04-05T03:22:09;100737.99;;;7.82;71.70
60642;BME280;46837;52.446;-1.930;2023-04-05T03:23:09;100740.10;;;7.87;71.54
60642;BME280;46837;52.446;-1.930;2023-04-05T03:24:09;100737.79;;;7.89;71.50
60642;BME280;46837;52.446;-1.930;2023-04-05T03:25:09;100738.59;;;7.92;71.44
60642;BME280;46837;52.446;-1.930;2023-04-05T03:26:09;100739.43;;;7.91;71.51
60642;BME280;46837;52.446;-1.930;2023-04-05T03:27:09;100736.66;;;7.86;71.59
60642;BME280;46837;52.446;-1.930;2023-04-05T03:28:09;100733.83;;;7.86;71.68
60642;BME280;46837;52.446;-1.930;2023-04-05T03:29:09;100732.07;;;7.85;71.81
60642;BME280;46837;52.446;-1.930;2023-04-05T03:30:09;100731.29;;;7.87;71.78
60642;BME280;46837;52.446;-1.930;2023-04-05T03:31:09;100732.48;;;7.79;71.98
60642;BME280;46837;52.446;-1.930;2023-04-05T03:32:09;100728.26;;;7.73;72.24
60642;BME280;46837;52.446;-1.930;2023-04-05T03:33:09;100728.50;;;7.79;72.17
60642;BME280;46837;52.446;-1.930;2023-04-05T03:34:09;100726.31;;;7.83;71.99
60642;BME280;46837;52.446;-1.930;2023-04-05T03:35:09;100728.53;;;7.89;71.75
60642;BME280;46837;52.446;-1.930;2023-04-05T03:36:09;100728.96;;;7.90;71.70
60642;BME280;46837;52.446;-1.930;2023-04-05T03:37:09;100724.82;;;7.89;71.76
60642;BME280;46837;52.446;-1.930;2023-04-05T03:38:09;100730.14;;;7.93;71.59
60642;BME280;46837;52.446;-1.930;2023-04-05T03:39:13;100728.23;;;7.93;71.65
60642;BME280;46837;52.446;-1.930;2023-04-05T03:40:09;100725.50;;;7.91;71.69
60642;BME280;46837;52.446;-1.930;2023-04-05T03:41:09;100725.15;;;7.92;71.67
60642;BME280;46837;52.446;-1.930;2023-04-05T03:42:09;100724.77;;;7.89;71.75
60642;BME280;46837;52.446;-1.930;2023-04-05T03:43:09;100725.15;;;7.89;71.77
60642;BME280;46837;52.446;-1.930;2023-04-05T03:44:09;100723.96;;;7.87;71.74
60642;BME280;46837;52.446;-1.930;2023-04-05T03:45:09;100726.02;;;7.92;71.73
60642;BME280;46837;52.446;-1.930;2023-04-05T03:46:09;100719.67;;;7.88;71.74
60642;BME280;46837;52.446;-1.930;2023-04-05T03:47:09;100719.37;;;7.87;71.76
60642;BME280;46837;52.446;-1.930;2023-04-05T03:48:09;100717.91;;;7.82;71.95
60642;BME280;46837;52.446;-1.930;2023-04-05T03:49:09;100716.79;;;7.83;71.99
60642;BME280;46837;52.446;-1.930;2023-04-05T03:50:09;100716.35;;;7.82;71.99
60642;BME280;46837;52.446;-1.930;2023-04-05T03:51:09;100711.94;;;7.78;72.05
60642;BME280;46837;52.446;-1.930;2023-04-05T03:52:09;100714.53;;;7.77;72.11
60642;BME280;46837;52.446;-1.930;2023-04-05T03:53:09;100712.72;;;7.71;72.15
60642;BME280;46837;52.446;-1.930;2023-04-05T03:54:09;100711.49;;;7.73;72.31
60642;BME280;46837;52.446;-1.930;2023-04-05T03:55:09;100711.07;;;7.71;72.38
60642;BME280;46837;52.446;-1.930;2023-04-05T03:56:09;100710.52;;;7.73;72.32
60642;BME280;46837;52.446;-1.930;2023-04-05T03:57:09;100711.30;;;7.69;72.25
60642;BME280;46837;52.446;-1.930;2023-04-05T03:58:09;100713.98;;;7.72;72.28
60642;BME280;46837;52.446;-1.930;2023-04-05T03:59:09;100714.59;;;7.73;72.17
60642;BME280;46837;52.446;-1.930;2023-04-05T04:00:13;100711.27;;;7.77;72.01
60642;BME280;46837;52.446;-1.930;2023-04-05T04:01:09;100713.10;;;7.78;71.88
60642;BME280;46837;52.446;-1.930;2023-04-05T04:02:09;100711.27;;;7.80;71.85
60642;BME280;46837;52.446;-1.930;2023-04-05T04:03:09;100710.12;;;7.82;71.77
60642;BME280;46837;52.446;-1.930;2023-04-05T04:04:09;100707.60;;;7.78;71.91
60642;BME280;46837;52.446;-1.930;2023-04-05T04:05:09;100704.52;;;7.77;71.97
60642;BME280;46837;52.446;-1.930;2023-04-05T04:06:09;100701.65;;;7.73;72.08
60642;BME280;46837;52.446;-1.930;2023-04-05T04:07:09;100700.32;;;7.74;72.14
60642;BME280;46837;52.446;-1.930;2023-04-05T04:08:09;100702.59;;;7.73;72.14
60642;BME280;46837;52.446;-1.930;2023-04-05T04:09:09;100699.91;;;7.73;72.12
60642;BME280;46837;52.446;-1.930;2023-04-05T04:10:09;100697.15;;;7.74;72.10
60642;BME280;46837;52.446;-1.930;2023-04-05T04:11:09;100698.23;;;7.73;72.16
60642;BME280;46837;52.446;-1.930;2023-04-05T04:12:09;100697.95;;;7.75;72.10
60642;BME280;46837;52.446;-1.930;2023-04-05T04:13:09;100696.81;;;7.76;72.00
60642;BME280;46837;52.446;-1.930;2023-04-05T04:14:09;100698.74;;;7.77;71.98
60642;BME280;46837;52.446;-1.930;2023-04-05T04:15:09;100699.37;;;7.75;71.99
60642;BME280;46837;52.446;-1.930;2023-04-05T04:16:09;100696.38;;;7.73;72.16
60642;BME280;46837;52.446;-1.930;2023-04-05T04:17:09;100697.25;;;7.76;72.07
60642;BME280;46837;52.446;-1.930;2023-04-05T04:18:09;100693.37;;;7.75;72.02
60642;BME280;46837;52.446;-1.930;2023-04-05T04:19:09;100692.58;;;7.74;72.02
60642;BME280;46837;52.446;-1.930;2023-04-05T04:20:13;100690.54;;;7.72;72.06
60642;BME280;46837;52.446;-1.930;2023-04-05T04:21:09;100690.28;;;7.73;72.07
60642;BME280;46837;52.446;-1.930;2023-04-05T04:22:11;100689.29;;;7.75;71.97
60642;BME280;46837;52.446;-1.930;2023-04-05T04:23:11;100693.37;;;7.75;71.95
60642;BME280;46837;52.446;-1.930;2023-04-05T04:24:09;100693.46;;;7.71;72.06
60642;BME280;46837;52.446;-1.930;2023-04-05T04:25:11;100692.02;;;7.73;72.04
60642;BME280;46837;52.446;-1.930;2023-04-05T04:26:09;100695.14;;;7.69;72.11
60642;BME280;46837;52.446;-1.930;2023-04-05T04:27:09;100697.22;;;7.70;72.17
60642;BME280;46837;52.446;-1.930;2023-04-05T04:28:11;100697.20;;;7.73;72.06
60642;BME280;46837;52.446;-1.930;2023-04-05T04:29:09;100689.67;;;7.60;72.39
60642;BME280;46837;52.446;-1.930;2023-04-05T04:30:10;100694.84;;;7.56;72.52
60642;BME280;46837;52.446;-1.930;2023-04-05T04:31:12;100694.16;;;7.52;72.64
60642;BME280;46837;52.446;-1.930;2023-04-05T04:32:09;100694.67;;;7.51;72.82
60642;BME280;46837;52.446;-1.930;2023-04-05T04:33:10;100689.48;;;7.55;72.69
60642;BME280;46837;52.446;-1.930;2023-04-05T04:34:09;100691.16;;;7.57;72.62
60642;BME280;46837;52.446;-1.930;2023-04-05T04:35:09;100690.16;;;7.59;72.49
60642;BME280;46837;52.446;-1.930;2023-04-05T04:36:09;100694.09;;;7.57;72.52
60642;BME280;46837;52.446;-1.930;2023-04-05T04:38:09;100692.48;;;7.53;72.67
60642;BME280;46837;52.446;-1.930;2023-04-05T04:39:09;100692.09;;;7.57;72.68
60642;BME280;46837;52.446;-1.930;2023-04-05T04:40:10;100688.73;;;7.56;72.68
60642;BME280;46837;52.446;-1.930;2023-04-05T04:41:09;100689.43;;;7.57;72.71
60642;BME280;46837;52.446;-1.930;2023-04-05T04:42:09;100691.34;;;7.57;72.64
60642;BME280;46837;52.446;-1.930;2023-04-05T04:43:09;100688.93;;;7.54;72.78
60642;BME280;46837;52.446;-1.930;2023-04-05T04:44:09;100693.03;;;7.58;72.68
60642;BME280;46837;52.446;-1.930;2023-04-05T04:45:09;100692.45;;;7.59;72.53
60642;BME280;46837;52.446;-1.930;2023-04-05T04:46:12;100691.06;;;7.57;72.66
60642;BME280;46837;52.446;-1.930;2023-04-05T04:47:13;100686.71;;;7.60;72.64
60642;BME280;46837;52.446;-1.930;2023-04-05T04:48:09;100689.11;;;7.64;72.49
60642;BME280;46837;52.446;-1.930;2023-04-05T04:49:09;100690.94;;;7.63;72.47
60642;BME280;46837;52.446;-1.930;2023-04-05T04:50:09;100686.99;;;7.60;72.64
60642;BME280;46837;52.446;-1.930;2023-04-05T04:51:09;100687.65;;;7.63;72.68
60642;BME280;46837;52.446;-1.930;2023-04-05T04:52:09;100684.89;;;7.61;72.67
60642;BME280;46837;52.446;-1.930;2023-04-05T04:53:09;100686.27;;;7.64;72.61
60642;BME280;46837;52.446;-1.930;2023-04-05T04:54:09;100686.96;;;7.66;72.53
60642;BME280;46837;52.446;-1.930;2023-04-05T04:55:09;100688.83;;;7.69;72.42
60642;BME280;46837;52.446;-1.930;2023-04-05T04:56:09;100682.78;;;7.62;72.39
60642;BME280;46837;52.446;-1.930;2023-04-05T04:57:09;100683.62;;;7.65;72.54
60642;BME280;46837;52.446;-1.930;2023-04-05T04:58:11;100681.34;;;7.67;72.36
60642;BME280;46837;52.446;-1.930;2023-04-05T04:59:09;100683.00;;;7.66;72.44
60642;BME280;46837;52.446;-1.930;2023-04-05T05:00:13;100678.82;;;7.69;72.29
60642;BME280;46837;52.446;-1.930;2023-04-05T05:01:09;100681.76;;;7.67;72.31
60642;BME280;46837;52.446;-1.930;2023-04-05T05:02:10;100680.08;;;7.67;72.45
60642;BME280;46837;52.446;-1.930;2023-04-05T05:03:09;100675.49;;;7.73;72.25
60642;BME280;46837;52.446;-1.930;2023-04-05T05:04:09;100675.65;;;7.71;72.16
60642;BME280;46837;52.446;-1.930;2023-04-05T05:05:09;100673.35;;;7.74;72.11
60642;BME280;46837;52.446;-1.930;2023-04-05T05:06:09;100670.95;;;7.80;71.94
60642;BME280;46837;52.446;-1.930;2023-04-05T05:07:09;100669.57;;;7.75;72.12
60642;BME280;46837;52.446;-1.930;2023-04-05T05:08:09;100671.65;;;7.77;72.01
60642;BME280;46837;52.446;-1.930;2023-04-05T05:09:09;100669.93;;;7.80;71.95
60642;BME280;46837;52.446;-1.930;2023-04-05T05:10:09;100669.93;;;7.87;71.74
60642;BME280;46837;52.446;-1.930;2023-04-05T05:11:09;100672.70;;;7.87;71.73
60642;BME280;46837;52.446;-1.930;2023-04-05T05:12:09;100670.39;;;7.91;71.61
60642;BME280;46837;52.446;-1.930;2023-04-05T05:13:09;100667.34;;;7.93;71.44
60642;BME280;46837;52.446;-1.930;2023-04-05T05:14:09;100668.07;;;7.97;71.42
60642;BME280;46837;52.446;-1.930;2023-04-05T05:15:09;100664.23;;;7.96;71.33
60642;BME280;46837;52.446;-1.930;2023-04-05T05:16:10;100665.08;;;7.97;71.26
60642;BME280;46837;52.446;-1.930;2023-04-05T05:17:09;100667.20;;;8.00;71.16
60642;BME280;46837;52.446;-1.930;2023-04-05T05:18:09;100663.21;;;7.96;71.20
60642;BME280;46837;52.446;-1.930;2023-04-05T05:19:09;100664.89;;;7.96;71.27
60642;BME280;46837;52.446;-1.930;2023-04-05T05:20:11;100663.52;;;7.91;71.45
60642;BME280;46837;52.446;-1.930;2023-04-05T05:21:09;100661.64;;;7.89;71.58
60642;BME280;46837;52.446;-1.930;2023-04-05T05:22:09;100662.74;;;7.89;71.57
60642;BME280;46837;52.446;-1.930;2023-04-05T05:23:09;100660.27;;;7.91;71.53
60642;BME280;46837;52.446;-1.930;2023-04-05T05:24:10;100659.60;;;7.91;71.44
60642;BME280;46837;52.446;-1.930;2023-04-05T05:25:09;100659.58;;;7.90;71.50